Time;durP1;ratioP1;P1;durP2;ratioP2;P2;SDS_P1;SDS_P2;PMS_P1;PMS_P2;Temp;Humidity;BMP_temperature;BMP_pressure;BME280_temperature;BME280_humidity;BME280_pressure;Samples;Min_cycle;Max_cycle;Signal;HPM_P1;HPM_P2
2022/10/20 00:02:00;;;;;;;6.83;6.20;;;;;;;;;;5044455;28;20495;-77
2022/10/20 00:04:28;;;;;;;7.78;6.47;;;;;;;;;;5022487;28;20450;-77
2022/10/20 00:06:54;;;;;;;8.20;7.40;;;;;;;;;;5044649;28;20182;-77
2022/10/20 00:09:20;;;;;;;9.93;7.93;;;;;;;;;;5022123;28;20438;-77
2022/10/20 00:11:46;;;;;;;7.17;6.57;;;;;;;;;;5044502;28;20840;-77
2022/10/20 00:14:12;;;;;;;9.60;6.50;;;;;;;;;;5022576;28;20612;-77
2022/10/20 00:16:38;;;;;;;7.60;7.00;;;;;;;;;;5044647;28;20196;-77
2022/10/20 00:19:04;;;;;;;11.18;7.20;;;;;;;;;;5041202;28;20464;-76
2022/10/20 00:21:31;;;;;;;6.80;6.30;;;;;;;;;;5045141;28;20167;-76
2022/10/20 00:24:00;;;;;;;6.47;5.97;;;;;;;;;;5022557;28;20622;-76
2022/10/20 00:26:26;;;;;;;7.65;7.05;;;;;;;;;;5025286;28;20530;-76
2022/10/20 00:28:53;;;;;;;7.77;7.07;;;;;;;;;;5042770;28;20183;-76
2022/10/20 00:31:20;;;;;;;7.37;6.87;;;;;;;;;;5049376;28;20420;-78
2022/10/20 00:33:46;;;;;;;8.33;7.23;;;;;;;;;;5029710;28;20574;-78
2022/10/20 00:36:14;;;;;;;8.00;7.40;;;;;;;;;;5049121;28;20689;-76
2022/10/20 00:38:40;;;;;;;8.20;7.37;;;;;;;;;;5028968;28;20954;-77
2022/10/20 00:41:06;;;;;;;8.00;7.40;;;;;;;;;;5049035;28;20413;-77
2022/10/20 00:43:41;;;;;;;7.63;7.03;;;;;;;;;;5026078;28;20430;-77
2022/10/20 00:46:07;;;;;;;7.70;6.93;;;;;;;;;;5025473;28;20402;-76
2022/10/20 00:48:33;;;;;;;7.70;7.10;;;;;;;;;;5044393;28;20416;-77
2022/10/20 00:50:59;;;;;;;7.63;6.97;;;;;;;;;;5047183;28;20413;-76
2022/10/20 00:53:26;;;;;;;8.80;7.57;;;;;;;;;;5025481;28;20480;-76
2022/10/20 00:55:53;;;;;;;7.40;6.90;;;;;;;;;;5040439;28;20469;-76
2022/10/20 00:58:19;;;;;;;8.77;7.83;;;;;;;;;;5029137;28;20772;-77
2022/10/20 01:00:47;;;;;;;8.23;7.43;;;;;;;;;;5023823;28;20538;-77
2022/10/20 01:03:19;;;;;;;8.37;7.77;;;;;;;;;;5048283;28;20430;-77
2022/10/20 01:05:45;;;;;;;8.63;7.73;;;;;;;;;;5024977;28;20528;-78
2022/10/20 01:08:11;;;;;;;7.67;7.20;;;;;;;;;;5047806;28;20438;-77
2022/10/20 01:10:40;;;;;;;7.30;6.50;;;;;;;;;;5025616;28;20499;-76
2022/10/20 01:13:08;;;;;;;8.60;7.90;;;;;;;;;;5048090;28;20449;-77
2022/10/20 01:15:37;;;;;;;8.07;7.47;;;;;;;;;;5042875;28;20207;-78
2022/10/20 01:18:06;;;;;;;7.27;6.77;;;;;;;;;;5028801;28;20192;-77
2022/10/20 01:20:32;;;;;;;8.73;7.90;;;;;;;;;;5026806;28;20959;-77
2022/10/20 01:23:07;;;;;;;11.93;7.50;;;;;;;;;;5047371;28;20564;-77
2022/10/20 01:25:45;;;;;;;9.80;8.18;;;;;;;;;;5042368;28;20476;-77
2022/10/20 01:28:14;;;;;;;9.48;6.57;;;;;;;;;;5028122;28;20190;-77
2022/10/20 01:30:44;;;;;;;8.05;7.35;;;;;;;;;;5025624;28;20195;-77
2022/10/20 01:33:20;;;;;;;8.52;7.82;;;;;;;;;;5047832;28;20206;-77
2022/10/20 01:35:57;;;;;;;8.05;7.38;;;;;;;;;;5024879;28;20569;-77
2022/10/20 01:38:23;;;;;;;9.07;8.27;;;;;;;;;;5048209;28;20229;-76
2022/10/20 01:40:57;;;;;;;9.40;8.50;;;;;;;;;;5042563;28;20435;-77
2022/10/20 01:43:25;;;;;;;7.95;7.30;;;;;;;;;;5028007;28;20437;-76
2022/10/20 01:45:51;;;;;;;7.60;7.00;;;;;;;;;;5020527;28;20195;-76
2022/10/20 01:48:20;;;;;;;8.73;8.03;;;;;;;;;;5047533;28;20187;-78
2022/10/20 01:50:46;;;;;;;22.17;8.80;;;;;;;;;;5041283;28;20429;-77
2022/10/20 01:53:13;;;;;;;9.67;8.30;;;;;;;;;;5027957;28;20418;-76
2022/10/20 01:55:39;;;;;;;9.77;8.43;;;;;;;;;;5044093;28;20543;-78
2022/10/20 01:58:17;;;;;;;10.90;7.80;;;;;;;;;;5046536;28;20468;-76
2022/10/20 02:00:44;;;;;;;8.47;7.77;;;;;;;;;;5042132;28;20433;-78
2022/10/20 02:03:16;;;;;;;10.03;9.13;;;;;;;;;;5026362;28;20430;-77
2022/10/20 02:05:48;;;;;;;9.93;8.93;;;;;;;;;;5024133;28;21214;-77
2022/10/20 02:08:17;;;;;;;9.00;8.17;;;;;;;;;;5027481;28;20916;-77
2022/10/20 02:10:48;;;;;;;9.03;8.13;;;;;;;;;;5026290;28;20450;-77
2022/10/20 02:13:15;;;;;;;13.05;7.80;;;;;;;;;;5046750;28;20441;-77
2022/10/20 02:15:46;;;;;;;8.38;7.57;;;;;;;;;;5040938;28;20622;-77
2022/10/20 02:18:15;;;;;;;12.35;8.25;;;;;;;;;;5027352;28;20544;-77
2022/10/20 02:20:42;;;;;;;8.82;7.93;;;;;;;;;;5043184;28;20218;-77
2022/10/20 02:23:09;;;;;;;11.15;7.90;;;;;;;;;;5025942;28;20242;-77
2022/10/20 02:25:37;;;;;;;8.48;7.35;;;;;;;;;;5042993;28;20214;-77
2022/10/20 02:28:04;;;;;;;10.47;9.23;;;;;;;;;;5027155;28;20187;-77
2022/10/20 02:30:30;;;;;;;11.80;8.23;;;;;;;;;;5027368;28;20450;-76
2022/10/20 02:32:56;;;;;;;9.40;7.75;;;;;;;;;;5046114;28;20207;-78
2022/10/20 02:35:26;;;;;;;12.07;9.43;;;;;;;;;;5037465;28;20258;-77
2022/10/20 02:37:52;;;;;;;9.25;8.35;;;;;;;;;;5036740;28;20483;-76
2022/10/20 02:40:18;;;;;;;10.27;9.10;;;;;;;;;;5033423;28;20306;-76
2022/10/20 02:42:44;;;;;;;9.93;9.03;;;;;;;;;;5037715;28;20935;-77
2022/10/20 02:45:10;;;;;;;10.33;9.30;;;;;;;;;;5031268;28;20442;-77
2022/10/20 02:47:36;;;;;;;15.00;10.80;;;;;;;;;;5036862;28;21050;-77
2022/10/20 02:50:08;;;;;;;12.23;9.97;;;;;;;;;;5040973;28;20273;-76
2022/10/20 02:52:35;;;;;;;10.80;9.70;;;;;;;;;;5042809;28;20902;-76
2022/10/20 02:55:01;;;;;;;12.43;9.95;;;;;;;;;;5035149;28;20461;-76
2022/10/20 02:57:27;;;;;;;10.70;8.90;;;;;;;;;;5043851;28;20753;-77
2022/10/20 02:59:53;;;;;;;10.43;8.68;;;;;;;;;;5033744;28;20469;-76
2022/10/20 03:02:19;;;;;;;12.00;10.03;;;;;;;;;;5027054;28;20556;-77
2022/10/20 03:04:45;;;;;;;10.00;8.97;;;;;;;;;;5042185;28;20438;-77
2022/10/20 03:07:11;;;;;;;11.07;10.13;;;;;;;;;;5026420;28;20434;-77
2022/10/20 03:09:37;;;;;;;14.37;9.70;;;;;;;;;;5035685;28;20454;-77
2022/10/20 03:12:03;;;;;;;16.00;9.70;;;;;;;;;;5026088;28;20880;-76
2022/10/20 03:14:29;;;;;;;12.65;9.65;;;;;;;;;;5036341;28;20505;-77
2022/10/20 03:16:55;;;;;;;10.15;9.35;;;;;;;;;;5025923;28;20536;-77
2022/10/20 03:19:21;;;;;;;10.63;9.63;;;;;;;;;;5037977;28;20203;-77
2022/10/20 03:21:48;;;;;;;10.33;9.23;;;;;;;;;;5026085;28;20502;-77
2022/10/20 03:24:14;;;;;;;12.03;10.40;;;;;;;;;;5040017;28;20448;-77
2022/10/20 03:26:46;;;;;;;13.00;8.50;;;;;;;;;;5045999;28;20402;-77
2022/10/20 03:29:12;;;;;;;10.90;9.90;;;;;;;;;;5022455;28;20624;-77
2022/10/20 03:31:44;;;;;;;9.63;8.77;;;;;;;;;;5025910;28;20748;-76
2022/10/20 03:34:11;;;;;;;9.93;9.03;;;;;;;;;;5040857;28;20604;-76
2022/10/20 03:36:37;;;;;;;10.10;9.17;;;;;;;;;;5045860;28;20422;-76
2022/10/20 03:39:03;;;;;;;12.07;9.47;;;;;;;;;;5022792;28;21016;-76
2022/10/20 03:41:29;;;;;;;14.77;9.53;;;;;;;;;;5025639;28;20814;-77
2022/10/20 03:43:56;;;;;;;12.50;8.93;;;;;;;;;;5041975;28;20445;-77
2022/10/20 03:46:22;;;;;;;14.60;10.50;;;;;;;;;;5041958;28;20828;-77
2022/10/20 03:48:48;;;;;;;14.33;9.43;;;;;;;;;;5026011;28;20477;-76
2022/10/20 03:51:14;;;;;;;12.43;10.30;;;;;;;;;;5031346;28;20634;-78
2022/10/20 03:53:40;;;;;;;11.07;8.33;;;;;;;;;;5026940;28;20443;-78
2022/10/20 03:56:06;;;;;;;12.53;9.87;;;;;;;;;;5023289;28;20469;-76
2022/10/20 03:58:32;;;;;;;16.47;11.40;;;;;;;;;;5045050;28;20472;-77
2022/10/20 04:00:58;;;;;;;14.80;9.07;;;;;;;;;;5038930;28;20449;-77
2022/10/20 04:03:24;;;;;;;12.75;9.45;;;;;;;;;;5024948;28;20421;-76
2022/10/20 04:05:51;;;;;;;11.73;10.20;;;;;;;;;;5026761;28;20275;-76
2022/10/20 04:08:16;;;;;;;11.32;10.30;;;;;;;;;;5044384;28;20433;-77
2022/10/20 04:10:42;;;;;;;10.90;9.77;;;;;;;;;;5036062;28;20191;-76
2022/10/20 04:13:08;;;;;;;13.93;9.77;;;;;;;;;;5038381;28;20490;-76
2022/10/20 04:15:35;;;;;;;11.80;10.17;;;;;;;;;;5041670;28;20542;-77
2022/10/20 04:18:01;;;;;;;20.63;10.73;;;;;;;;;;5028034;28;20479;-77
2022/10/20 04:20:26;;;;;;;10.50;9.60;;;;;;;;;;5038857;28;20719;-78
2022/10/20 04:22:53;;;;;;;14.70;10.03;;;;;;;;;;5024139;28;20431;-78
2022/10/20 04:25:19;;;;;;;12.80;10.03;;;;;;;;;;5030460;28;20445;-77
2022/10/20 04:27:45;;;;;;;18.20;11.53;;;;;;;;;;5040125;28;20431;-77
2022/10/20 04:30:20;;;;;;;14.32;9.80;;;;;;;;;;4657822;28;10003281;-77
2022/10/20 04:32:46;;;;;;;11.90;9.80;;;;;;;;;;5035759;28;20355;-77
2022/10/20 04:35:12;;;;;;;11.00;9.90;;;;;;;;;;5026606;28;20475;-78
2022/10/20 04:37:38;;;;;;;11.50;10.30;;;;;;;;;;5034163;28;20441;-77
2022/10/20 04:40:05;;;;;;;18.03;10.47;;;;;;;;;;5027029;28;21083;-78
2022/10/20 04:42:31;;;;;;;13.43;8.50;;;;;;;;;;5031635;28;20816;-78
2022/10/20 04:44:57;;;;;;;11.50;10.00;;;;;;;;;;5028227;28;20589;-78
2022/10/20 04:47:23;;;;;;;12.27;8.53;;;;;;;;;;5041547;28;20452;-78
2022/10/20 04:49:49;;;;;;;10.73;9.63;;;;;;;;;;5026919;28;20939;-79
2022/10/20 04:52:16;;;;;;;11.30;10.10;;;;;;;;;;5034776;28;20530;-78
2022/10/20 04:54:42;;;;;;;14.00;9.50;;;;;;;;;;5024856;28;20599;-77
2022/10/20 04:57:09;;;;;;;12.50;10.13;;;;;;;;;;5029917;28;21404;-78
2022/10/20 04:59:35;;;;;;;11.43;10.17;;;;;;;;;;5033484;28;20435;-78
2022/10/20 05:02:01;;;;;;;14.70;10.97;;;;;;;;;;5037646;28;20425;-76
2022/10/20 05:04:27;;;;;;;10.10;9.20;;;;;;;;;;5020739;28;20419;-77
2022/10/20 05:06:53;;;;;;;12.50;10.57;;;;;;;;;;5024197;28;20399;-81
2022/10/20 05:09:19;;;;;;;11.80;10.57;;;;;;;;;;5039993;28;20511;-78
2022/10/20 05:11:45;;;;;;;13.73;10.83;;;;;;;;;;5045065;28;20874;-77
2022/10/20 05:14:12;;;;;;;12.25;8.98;;;;;;;;;;5025162;28;20800;-76
2022/10/20 05:16:38;;;;;;;12.57;9.37;;;;;;;;;;5028303;28;20176;-77
2022/10/20 05:19:04;;;;;;;10.03;9.23;;;;;;;;;;5047047;28;20429;-77
2022/10/20 05:21:31;;;;;;;11.37;10.30;;;;;;;;;;5043963;28;20448;-78
2022/10/20 05:23:58;;;;;;;9.97;8.97;;;;;;;;;;5028026;28;20683;-77
2022/10/20 05:26:25;;;;;;;11.35;9.75;;;;;;;;;;5042764;28;20441;-78
2022/10/20 05:28:51;;;;;;;11.80;9.93;;;;;;;;;;5028087;28;20556;-78
2022/10/20 05:31:18;;;;;;;10.60;9.60;;;;;;;;;;5026817;28;20426;-76
2022/10/20 05:33:46;;;;;;;13.63;10.37;;;;;;;;;;5046917;28;20429;-77
2022/10/20 05:36:13;;;;;;;11.30;10.10;;;;;;;;;;5039287;28;20516;-77
2022/10/20 05:38:39;;;;;;;12.20;10.90;;;;;;;;;;5027596;28;20434;-76
2022/10/20 05:41:09;;;;;;;11.87;10.70;;;;;;;;;;5028600;28;20451;-77
2022/10/20 05:43:35;;;;;;;11.77;10.60;;;;;;;;;;5046974;28;20442;-77
2022/10/20 05:46:02;;;;;;;9.30;8.50;;;;;;;;;;5032819;28;20434;-77
2022/10/20 05:48:28;;;;;;;10.07;9.07;;;;;;;;;;5027758;28;20480;-77
2022/10/20 05:50:54;;;;;;;9.47;8.57;;;;;;;;;;5030215;28;20462;-77
2022/10/20 05:53:20;;;;;;;10.07;9.10;;;;;;;;;;5046688;28;20484;-77
2022/10/20 05:55:46;;;;;;;10.40;9.17;;;;;;;;;;5035148;28;20477;-76
2022/10/20 05:58:12;;;;;;;10.37;8.60;;;;;;;;;;5025722;28;20852;-77
2022/10/20 06:00:50;;;;;;;15.57;8.90;;;;;;;;;;5042747;28;20442;-76
2022/10/20 06:03:16;;;;;;;13.73;11.47;;;;;;;;;;5027083;28;20410;-77
2022/10/20 06:05:42;;;;;;;9.33;8.57;;;;;;;;;;5042612;28;20524;-77
2022/10/20 06:08:08;;;;;;;11.40;9.97;;;;;;;;;;5027194;28;20529;-77
2022/10/20 06:10:34;;;;;;;11.93;10.83;;;;;;;;;;5033343;28;20468;-74
2022/10/20 06:13:00;;;;;;;18.50;10.13;;;;;;;;;;5044313;28;20434;-74
2022/10/20 06:15:26;;;;;;;9.90;9.00;;;;;;;;;;5031477;28;20560;-74
2022/10/20 06:17:52;;;;;;;8.23;7.63;;;;;;;;;;5026880;28;20511;-75
2022/10/20 06:20:18;;;;;;;10.87;8.87;;;;;;;;;;5042039;28;20944;-76
2022/10/20 06:22:44;;;;;;;10.40;9.27;;;;;;;;;;5045981;28;20590;-75
2022/10/20 06:25:10;;;;;;;8.70;8.00;;;;;;;;;;5022573;28;20445;-74
2022/10/20 06:27:36;;;;;;;12.27;8.80;;;;;;;;;;5025470;28;20441;-77
2022/10/20 06:30:02;;;;;;;13.27;8.07;;;;;;;;;;5042053;28;20438;-77
2022/10/20 06:32:28;;;;;;;9.17;8.27;;;;;;;;;;5046274;28;20432;-78
2022/10/20 06:34:54;;;;;;;10.03;9.20;;;;;;;;;;5023006;28;20478;-77
2022/10/20 06:37:20;;;;;;;11.97;8.57;;;;;;;;;;5026441;28;20403;-77
2022/10/20 06:39:46;;;;;;;9.70;8.60;;;;;;;;;;5039726;28;20464;-77
2022/10/20 06:42:12;;;;;;;11.93;9.00;;;;;;;;;;5026224;28;20391;-78
2022/10/20 06:44:38;;;;;;;8.30;7.70;;;;;;;;;;5037786;28;20911;-77
2022/10/20 06:47:08;;;;;;;9.50;7.63;;;;;;;;;;5045955;28;20394;-77
2022/10/20 06:49:34;;;;;;;10.30;8.70;;;;;;;;;;5021541;28;20423;-78
2022/10/20 06:52:00;;;;;;;9.33;8.30;;;;;;;;;;5025931;28;20846;-76
2022/10/20 06:54:26;;;;;;;8.20;7.43;;;;;;;;;;5042960;28;20592;-76
2022/10/20 06:56:53;;;;;;;9.40;8.70;;;;;;;;;;5041382;28;20810;-78
2022/10/20 06:59:19;;;;;;;8.50;7.70;;;;;;;;;;5026610;28;20484;-79
2022/10/20 07:01:45;;;;;;;7.03;6.63;;;;;;;;;;5041687;28;20806;-77
2022/10/20 07:04:13;;;;;;;7.40;6.70;;;;;;;;;;5025851;28;20473;-77
2022/10/20 07:06:40;;;;;;;8.60;7.80;;;;;;;;;;5023498;28;20438;-76
2022/10/20 07:09:07;;;;;;;9.93;7.30;;;;;;;;;;5045085;28;20425;-75
2022/10/20 07:11:34;;;;;;;10.03;7.77;;;;;;;;;;5038350;28;20518;-75
2022/10/20 07:14:01;;;;;;;6.50;6.10;;;;;;;;;;5025798;28;20860;-76
2022/10/20 07:16:28;;;;;;;8.10;7.40;;;;;;;;;;4344825;28;10000625;-76
2022/10/20 07:18:56;;;;;;;7.10;6.60;;;;;;;;;;5040548;28;20195;-76
2022/10/20 07:21:23;;;;;;;7.93;7.23;;;;;;;;;;5037982;28;20978;-75
2022/10/20 07:23:50;;;;;;;7.47;6.87;;;;;;;;;;5033251;28;20462;-75
2022/10/20 07:26:20;;;;;;;8.30;7.70;;;;;;;;;;5030256;28;20821;-77
2022/10/20 07:28:48;;;;;;;7.37;6.87;;;;;;;;;;5036214;28;20472;-76
2022/10/20 07:31:15;;;;;;;9.03;7.50;;;;;;;;;;5024355;28;20442;-77
2022/10/20 07:33:41;;;;;;;8.30;6.90;;;;;;;;;;5035160;28;20494;-77
2022/10/20 07:36:26;;;;;;;8.10;7.20;;;;;;;;;;5023762;28;20514;-79
2022/10/20 07:38:53;;;;;;;7.47;6.73;;;;;;;;;;5040121;28;20448;-78
2022/10/20 07:41:19;;;;;;;7.30;6.80;;;;;;;;;;5027818;28;20521;-78
2022/10/20 07:43:45;;;;;;;7.27;6.77;;;;;;;;;;5035510;28;20591;-76
2022/10/20 07:46:12;;;;;;;7.10;6.50;;;;;;;;;;5021337;28;21270;-77
2022/10/20 07:48:38;;;;;;;9.23;7.10;;;;;;;;;;5036645;28;21007;-77
2022/10/20 07:51:33;;;;;;;7.10;6.63;;;;;;;;;;5028767;28;20958;-76
2022/10/20 07:54:02;;;;;;;9.37;6.90;;;;;;;;;;5039396;28;20748;-78
2022/10/20 07:56:29;;;;;;;6.07;5.70;;;;;;;;;;5031593;28;20792;-77
2022/10/20 07:58:55;;;;;;;7.50;6.97;;;;;;;;;;5037998;28;20446;-78
2022/10/20 08:01:21;;;;;;;7.50;6.80;;;;;;;;;;5022580;28;20440;-76
2022/10/20 08:03:47;;;;;;;9.07;6.23;;;;;;;;;;5033852;28;20962;-77
2022/10/20 08:06:13;;;;;;;8.20;6.80;;;;;;;;;;5031737;28;20920;-77
2022/10/20 08:08:40;;;;;;;7.40;6.70;;;;;;;;;;5032446;28;20465;-79
2022/10/20 08:11:06;;;;;;;6.83;6.20;;;;;;;;;;5026607;28;20469;-78
2022/10/20 08:13:32;;;;;;;6.83;6.33;;;;;;;;;;5031970;28;20464;-77
2022/10/20 08:15:58;;;;;;;6.67;6.17;;;;;;;;;;5023335;28;20480;-77
2022/10/20 08:18:24;;;;;;;7.50;6.80;;;;;;;;;;5032127;28;20439;-78
2022/10/20 08:20:50;;;;;;;6.23;5.73;;;;;;;;;;5030222;28;20504;-77
2022/10/20 08:23:16;;;;;;;7.70;7.10;;;;;;;;;;5040944;28;20406;-77
2022/10/20 08:25:43;;;;;;;6.90;6.37;;;;;;;;;;5028673;28;21037;-76
2022/10/20 08:28:09;;;;;;;7.47;6.70;;;;;;;;;;5031728;28;20928;-79
2022/10/20 08:30:35;;;;;;;6.00;5.70;;;;;;;;;;5027611;28;20449;-77
2022/10/20 08:33:01;;;;;;;6.50;5.97;;;;;;;;;;5038992;28;20434;-77
2022/10/20 08:35:28;;;;;;;7.57;6.83;;;;;;;;;;5026262;28;20516;-76
2022/10/20 08:37:54;;;;;;;7.43;6.83;;;;;;;;;;5035472;28;20904;-76
2022/10/20 08:40:22;;;;;;;7.07;6.57;;;;;;;;;;5032040;28;20447;-76
2022/10/20 08:42:48;;;;;;;6.67;6.00;;;;;;;;;;5041672;28;20424;-76
2022/10/20 08:45:16;;;;;;;5.70;5.40;;;;;;;;;;5026893;28;20464;-77
2022/10/20 08:47:42;;;;;;;6.77;6.20;;;;;;;;;;5033040;28;20783;-77
2022/10/20 08:50:12;;;;;;;6.57;6.07;;;;;;;;;;5031117;28;20441;-79
2022/10/20 08:52:40;;;;;;;7.50;6.70;;;;;;;;;;5036544;28;20456;-78
2022/10/20 08:55:06;;;;;;;6.20;5.90;;;;;;;;;;5033131;28;20477;-77
2022/10/20 08:57:34;;;;;;;7.30;6.77;;;;;;;;;;5036789;28;20906;-78
2022/10/20 09:00:20;;;;;;;6.10;5.60;;;;;;;;;;5030927;28;20444;-76
2022/10/20 09:02:47;;;;;;;5.50;5.20;;;;;;;;;;5050242;28;20414;-76
2022/10/20 09:05:13;;;;;;;5.80;5.50;;;;;;;;;;5037003;28;20723;-77
2022/10/20 09:07:40;;;;;;;5.50;5.20;;;;;;;;;;5045260;28;20409;-77
2022/10/20 09:10:15;;;;;;;7.17;6.33;;;;;;;;;;5037326;28;20467;-77
2022/10/20 09:12:42;;;;;;;6.97;6.20;;;;;;;;;;5036660;28;20401;-77
2022/10/20 09:15:18;;;;;;;7.60;6.87;;;;;;;;;;5036168;28;20564;-77
2022/10/20 09:17:53;;;;;;;6.60;6.20;;;;;;;;;;5048676;28;20503;-80
2022/10/20 09:20:21;;;;;;;6.60;5.60;;;;;;;;;;5036306;28;20977;-77
2022/10/20 09:22:47;;;;;;;5.60;5.40;;;;;;;;;;5028172;28;20443;-75
2022/10/20 09:25:17;;;;;;;6.80;6.40;;;;;;;;;;5041567;28;20433;-76
2022/10/20 09:27:44;;;;;;;6.83;6.40;;;;;;;;;;5047945;28;20402;-77
2022/10/20 09:30:24;;;;;;;5.80;5.40;;;;;;;;;;5024263;28;20481;-77
2022/10/20 09:32:51;;;;;;;6.20;5.83;;;;;;;;;;5028063;28;20446;-76
2022/10/20 09:35:17;;;;;;;6.70;6.13;;;;;;;;;;5042960;28;20457;-77
2022/10/20 09:37:47;;;;;;;6.30;6.00;;;;;;;;;;5047650;28;20402;-77
2022/10/20 09:40:14;;;;;;;17.93;6.00;;;;;;;;;;5024322;28;20457;-77
2022/10/20 09:42:43;;;;;;;5.83;5.60;;;;;;;;;;5047441;28;20428;-78
2022/10/20 09:45:20;;;;;;;7.00;6.50;;;;;;;;;;5020860;28;20418;-79
2022/10/20 09:47:50;;;;;;;8.43;6.60;;;;;;;;;;5027529;28;20419;-78
2022/10/20 09:50:39;;;;;;;7.10;6.50;;;;;;;;;;5043749;28;20420;-78
2022/10/20 09:53:07;;;;;;;12.03;8.20;;;;;;;;;;5045087;28;20418;-79
2022/10/20 09:55:34;;;;;;;8.50;7.80;;;;;;;;;;5038610;28;20567;-79
2022/10/20 09:58:01;;;;;;;8.07;6.90;;;;;;;;;;5046992;28;20406;-77
2022/10/20 10:00:32;;;;;;;6.60;6.10;;;;;;;;;;5023363;28;20540;-78
2022/10/20 10:03:08;;;;;;;6.90;6.50;;;;;;;;;;5026414;28;20449;-78
2022/10/20 10:05:34;;;;;;;5.90;5.50;;;;;;;;;;5042534;28;20442;-77
2022/10/20 10:08:01;;;;;;;7.73;6.50;;;;;;;;;;5045185;28;20406;-76
2022/10/20 10:10:30;;;;;;;7.27;6.50;;;;;;;;;;5024184;28;20462;-76
2022/10/20 10:12:59;;;;;;;6.47;6.07;;;;;;;;;;5024803;28;20843;-76
2022/10/20 10:15:30;;;;;;;6.47;6.00;;;;;;;;;;5042294;28;20505;-77
2022/10/20 10:17:56;;;;;;;7.47;6.80;;;;;;;;;;5044930;28;20896;-78
2022/10/20 10:20:27;;;;;;;6.67;6.37;;;;;;;;;;5024161;28;20482;-79
2022/10/20 10:23:07;;;;;;;6.47;6.17;;;;;;;;;;5026792;28;20415;-77
2022/10/20 10:25:32;;;;;;;6.50;6.00;;;;;;;;;;5024322;28;20591;-80
2022/10/20 10:27:59;;;;;;;10.70;6.30;;;;;;;;;;5026456;28;20854;-77
2022/10/20 10:30:32;;;;;;;7.80;7.30;;;;;;;;;;5034395;28;20506;-78
2022/10/20 10:32:58;;;;;;;6.43;6.13;;;;;;;;;;4693242;28;10000280;-78
2022/10/20 10:35:38;;;;;;;6.13;5.80;;;;;;;;;;5035362;28;20465;-81
2022/10/20 10:38:04;;;;;;;7.23;6.80;;;;;;;;;;5037699;28;20418;-78
2022/10/20 10:40:38;;;;;;;8.70;7.83;;;;;;;;;;5036848;28;20436;-78
2022/10/20 10:43:28;;;;;;;8.10;6.57;;;;;;;;;;5043358;28;20425;-76
2022/10/20 10:45:58;;;;;;;18.73;6.87;;;;;;;;;;5031852;28;20871;-78
2022/10/20 10:48:30;;;;;;;12.33;7.47;;;;;;;;;;5037907;28;20417;-81
2022/10/20 10:51:10;;;;;;;7.10;6.60;;;;;;;;;;5028630;28;20448;-77
2022/10/20 10:53:48;;;;;;;7.50;6.87;;;;;;;;;;5044144;28;20523;-78
2022/10/20 10:56:33;;;;;;;8.00;6.83;;;;;;;;;;5032439;28;20497;-77
2022/10/20 10:59:05;;;;;;;9.40;7.90;;;;;;;;;;5025542;28;20462;-78
2022/10/20 11:01:37;;;;;;;7.82;7.20;;;;;;;;;;4688835;28;10000540;-81
2022/10/20 11:04:25;;;;;;;9.00;8.30;;;;;;;;;;5033794;28;20627;-82
2022/10/20 11:06:55;;;;;;;7.70;7.10;;;;;;;;;;5025052;28;20954;-80
2022/10/20 11:09:21;;;;;;;6.83;6.27;;;;;;;;;;5043907;28;20417;-79
2022/10/20 11:12:09;;;;;;;7.50;7.10;;;;;;;;;;5029055;28;20504;-84
2022/10/20 11:14:35;;;;;;;8.17;7.37;;;;;;;;;;5041454;28;20975;-78
2022/10/20 11:17:07;;;;;;;7.17;6.57;;;;;;;;;;5037953;28;20456;-76
2022/10/20 11:19:36;;;;;;;6.97;6.47;;;;;;;;;;5024107;28;20437;-77
2022/10/20 11:22:20;;;;;;;8.93;7.90;;;;;;;;;;5040232;28;20970;-77
2022/10/20 11:24:49;;;;;;;8.30;7.50;;;;;;;;;;5024454;28;20522;-77
2022/10/20 11:27:20;;;;;;;6.37;5.77;;;;;;;;;;5026111;28;20858;-77
2022/10/20 11:29:50;;;;;;;7.93;7.33;;;;;;;;;;4694421;28;10000096;-78
2022/10/20 11:32:23;;;;;;;7.93;7.43;;;;;;;;;;5020515;28;20210;-78
2022/10/20 11:34:56;;;;;;;7.87;7.10;;;;;;;;;;5043476;28;20518;-77
2022/10/20 11:37:27;;;;;;;7.47;6.87;;;;;;;;;;5021849;28;20446;-78
2022/10/20 11:40:08;;;;;;;13.20;7.53;;;;;;;;;;5044427;28;20434;-78
2022/10/20 11:42:39;;;;;;;7.80;7.10;;;;;;;;;;5040280;28;20516;-79
2022/10/20 11:45:19;;;;;;;7.67;7.10;;;;;;;;;;5022926;28;20489;-79
2022/10/20 11:47:46;;;;;;;10.03;9.23;;;;;;;;;;5039676;28;20931;-76
2022/10/20 11:50:12;;;;;;;8.43;7.70;;;;;;;;;;5025275;28;20631;-77
2022/10/20 11:52:54;;;;;;;8.63;7.80;;;;;;;;;;5023324;28;20453;-77
2022/10/20 11:55:26;;;;;;;8.30;7.70;;;;;;;;;;5032242;28;20856;-77
2022/10/20 11:58:01;;;;;;;9.03;7.27;;;;;;;;;;5041477;28;20529;-77
2022/10/20 12:00:50;;;;;;;8.43;7.73;;;;;;;;;;5023658;28;20426;-77
2022/10/20 12:03:16;;;;;;;8.33;7.53;;;;;;;;;;5014928;28;20573;-77
2022/10/20 12:05:48;;;;;;;10.00;9.20;;;;;;;;;;5021485;28;20617;-77
2022/10/20 12:08:53;;;;;;;9.30;8.50;;;;;;;;;;5024184;28;20407;-76
2022/10/20 12:11:27;;;;;;;8.00;7.27;;;;;;;;;;4954182;28;20457;-77
2022/10/20 12:14:05;;;;;;;11.77;9.40;;;;;;;;;;4943862;29;20736;-78
2022/10/20 12:16:50;;;;;;;9.87;8.83;;;;;;;;;;5003345;28;20539;-78
2022/10/20 12:19:17;;;;;;;11.50;10.43;;;;;;;;;;5043060;28;20586;-78
2022/10/20 12:21:54;;;;;;;11.53;10.50;;;;;;;;;;5019521;28;20954;-78
2022/10/20 12:24:32;;;;;;;20.80;9.87;;;;;;;;;;5045400;28;20449;-77
2022/10/20 12:27:07;;;;;;;10.67;9.57;;;;;;;;;;5024943;28;20433;-79
2022/10/20 12:29:33;;;;;;;10.17;9.17;;;;;;;;;;5047899;28;20464;-78
2022/10/20 12:32:19;;;;;;;11.83;10.57;;;;;;;;;;5035880;28;20473;-77
2022/10/20 12:34:46;;;;;;;14.03;10.87;;;;;;;;;;5028825;28;20531;-77
2022/10/20 12:37:15;;;;;;;13.20;11.90;;;;;;;;;;5030116;28;20442;-76
2022/10/20 12:39:41;;;;;;;12.67;11.47;;;;;;;;;;5047983;28;20480;-78
2022/10/20 12:42:18;;;;;;;14.33;13.07;;;;;;;;;;5032625;28;21151;-78
2022/10/20 12:44:45;;;;;;;15.77;12.70;;;;;;;;;;5055794;28;20574;-77
2022/10/20 12:47:23;;;;;;;13.50;11.37;;;;;;;;;;5036227;28;20513;-79
2022/10/20 12:50:07;;;;;;;13.20;11.10;;;;;;;;;;5048576;28;20432;-78
2022/10/20 12:52:35;;;;;;;17.20;12.53;;;;;;;;;;5040424;28;20449;-77
2022/10/20 12:55:13;;;;;;;30.90;25.10;;;;;;;;;;5045586;28;20811;-76
2022/10/20 12:57:40;;;;;;;13.90;12.30;;;;;;;;;;5044834;28;20876;-78
2022/10/20 13:00:26;;;;;;;10.53;9.47;;;;;;;;;;5043930;28;20428;-77
2022/10/20 13:02:54;;;;;;;12.80;11.60;;;;;;;;;;5012352;28;20456;-76
2022/10/20 13:05:55;;;;;;;13.57;12.15;;;;;;;;;;4334703;28;10022677;-77
2022/10/20 13:08:22;;;;;;;12.77;11.53;;;;;;;;;;4985271;28;20219;-76
2022/10/20 13:10:52;;;;;;;13.63;12.00;;;;;;;;;;5032028;28;20480;-76
2022/10/20 13:13:18;;;;;;;10.73;9.63;;;;;;;;;;5035978;28;20501;-77
2022/10/20 13:15:44;;;;;;;10.40;9.20;;;;;;;;;;5037093;28;20530;-78
2022/10/20 13:18:16;;;;;;;11.97;10.63;;;;;;;;;;5037495;28;20492;-78
2022/10/20 13:21:01;;;;;;;11.10;9.93;;;;;;;;;;5036080;28;20426;-78
2022/10/20 13:23:33;;;;;;;11.93;10.80;;;;;;;;;;5033510;28;20414;-78
2022/10/20 13:26:03;;;;;;;10.30;9.43;;;;;;;;;;5033031;28;20433;-78
2022/10/20 13:28:31;;;;;;;14.57;10.43;;;;;;;;;;5040628;28;20425;-79
2022/10/20 13:31:10;;;;;;;10.30;9.20;;;;;;;;;;5031102;28;21062;-78
2022/10/20 13:33:58;;;;;;;10.87;9.97;;;;;;;;;;5047482;28;20500;-78
2022/10/20 13:36:33;;;;;;;11.90;9.47;;;;;;;;;;5027570;28;20482;-77
2022/10/20 13:39:14;;;;;;;12.83;11.50;;;;;;;;;;5027183;28;20406;-77
2022/10/20 13:41:44;;;;;;;12.87;9.50;;;;;;;;;;5024481;28;20445;-77
2022/10/20 13:44:20;;;;;;;11.03;10.10;;;;;;;;;;5026509;28;20414;-77
2022/10/20 13:46:53;;;;;;;16.63;11.13;;;;;;;;;;5024327;28;20446;-76
2022/10/20 13:49:28;;;;;;;10.23;9.20;;;;;;;;;;5041482;28;20401;-76
2022/10/20 13:51:57;;;;;;;10.07;9.20;;;;;;;;;;5043667;28;20528;-79
2022/10/20 13:54:25;;;;;;;11.87;9.50;;;;;;;;;;5026515;28;20770;-77
2022/10/20 13:56:52;;;;;;;11.50;9.70;;;;;;;;;;5024287;28;20438;-77
2022/10/20 13:59:19;;;;;;;9.87;9.10;;;;;;;;;;5027531;28;20410;-77
2022/10/20 14:01:47;;;;;;;18.47;9.60;;;;;;;;;;5043348;28;20468;-77
2022/10/20 14:04:23;;;;;;;14.80;10.30;;;;;;;;;;5047211;28;20410;-76
2022/10/20 14:06:49;;;;;;;9.20;8.40;;;;;;;;;;5023911;28;20434;-76
2022/10/20 14:09:34;;;;;;;9.80;9.03;;;;;;;;;;5026705;28;20539;-77
2022/10/20 14:12:02;;;;;;;12.73;8.30;;;;;;;;;;5024068;28;20453;-77
2022/10/20 14:14:29;;;;;;;8.17;7.50;;;;;;;;;;5046389;28;20537;-78
2022/10/20 14:17:00;;;;;;;8.00;7.30;;;;;;;;;;5023706;28;20936;-76
2022/10/20 14:19:27;;;;;;;8.20;7.57;;;;;;;;;;5026522;28;20452;-76
2022/10/20 14:21:55;;;;;;;9.33;8.03;;;;;;;;;;5042396;28;20824;-76
2022/10/20 14:24:35;;;;;;;7.53;7.03;;;;;;;;;;5046691;28;20919;-76
2022/10/20 14:27:03;;;;;;;8.70;7.77;;;;;;;;;;5023706;28;20438;-77
2022/10/20 14:29:31;;;;;;;7.63;7.13;;;;;;;;;;5045761;28;20694;-77
2022/10/20 14:31:58;;;;;;;7.90;7.00;;;;;;;;;;5023548;28;20889;-77
2022/10/20 14:34:25;;;;;;;8.37;7.77;;;;;;;;;;5027056;28;20407;-77
2022/10/20 14:36:52;;;;;;;8.40;7.70;;;;;;;;;;5040938;28;20446;-78
2022/10/20 14:39:25;;;;;;;8.13;7.37;;;;;;;;;;5026150;28;20407;-77
2022/10/20 14:41:51;;;;;;;7.63;7.20;;;;;;;;;;5023792;28;20992;-76
2022/10/20 14:44:19;;;;;;;8.70;8.10;;;;;;;;;;5024237;28;20411;-77
2022/10/20 14:46:46;;;;;;;9.23;8.50;;;;;;;;;;5041072;28;20453;-78
2022/10/20 14:49:25;;;;;;;7.90;7.20;;;;;;;;;;5045489;28;20413;-76